sensor_id;sensor_type;location;lat;lon;timestamp;temperature;humidity
26107;DHT22;13866;50.748;12.630;2023-04-03T00:00:26;1.50;99.90
26107;DHT22;13866;50.748;12.630;2023-04-03T00:02:51;1.40;99.90
26107;DHT22;13866;50.748;12.630;2023-04-03T00:05:17;1.40;99.90
26107;DHT22;13866;50.748;12.630;2023-04-03T00:07:42;1.40;99.90
26107;DHT22;13866;50.748;12.630;2023-04-03T00:10:08;1.30;99.90
26107;DHT22;13866;50.748;12.630;2023-04-03T00:12:33;1.20;99.90
26107;DHT22;13866;50.748;12.630;2023-04-03T00:14:59;1.20;99.90
26107;DHT22;13866;50.748;12.630;2023-04-03T00:17:25;1.20;99.90
26107;DHT22;13866;50.748;12.630;2023-04-03T00:19:50;1.30;99.90
26107;DHT22;13866;50.748;12.630;2023-04-03T00:22:16;1.20;99.90
26107;DHT22;13866;50.748;12.630;2023-04-03T00:24:41;1.20;99.90
26107;DHT22;13866;50.748;12.630;2023-04-03T00:27:07;1.20;99.90
26107;DHT22;13866;50.748;12.630;2023-04-03T00:29:32;1.10;99.90
26107;DHT22;13866;50.748;12.630;2023-04-03T00:31:58;1.00;99.90
26107;DHT22;13866;50.748;12.630;2023-04-03T00:34:23;1.10;99.90
26107;DHT22;13866;50.748;12.630;2023-04-03T00:36:49;1.10;99.90
26107;DHT22;13866;50.748;12.630;2023-04-03T00:39:14;1.10;99.90
26107;DHT22;13866;50.748;12.630;2023-04-03T00:41:40;1.10;99.90
26107;DHT22;13866;50.748;12.630;2023-04-03T00:46:53;0.90;99.90
26107;DHT22;13866;50.748;12.630;2023-04-03T00:49:19;0.90;99.90
26107;DHT22;13866;50.748;12.630;2023-04-03T00:51:45;0.90;99.90
26107;DHT22;13866;50.748;12.630;2023-04-03T00:54:11;0.90;99.90
26107;DHT22;13866;50.748;12.630;2023-04-03T00:56:37;0.80;99.90
26107;DHT22;13866;50.748;12.630;2023-04-03T00:59:18;0.80;99.90
26107;DHT22;13866;50.748;12.630;2023-04-03T01:01:47;0.80;99.90
26107;DHT22;13866;50.748;12.630;2023-04-03T01:04:36;0.80;99.90
26107;DHT22;13866;50.748;12.630;2023-04-03T01:07:07;0.80;99.90
26107;DHT22;13866;50.748;12.630;2023-04-03T01:09:34;0.80;99.90
26107;DHT22;13866;50.748;12.630;2023-04-03T01:12:20;0.80;99.90
26107;DHT22;13866;50.748;12.630;2023-04-03T01:14:53;0.70;99.90
26107;DHT22;13866;50.748;12.630;2023-04-03T01:17:33;0.80;99.90
26107;DHT22;13866;50.748;12.630;2023-04-03T01:22:51;0.80;99.90
26107;DHT22;13866;50.748;12.630;2023-04-03T01:25:18;0.80;99.90
26107;DHT22;13866;50.748;12.630;2023-04-03T01:27:44;0.70;99.90
26107;DHT22;13866;50.748;12.630;2023-04-03T01:30:10;0.70;99.90
26107;DHT22;13866;50.748;12.630;2023-04-03T01:32:36;0.70;99.90
26107;DHT22;13866;50.748;12.630;2023-04-03T01:35:01;0.70;99.90
26107;DHT22;13866;50.748;12.630;2023-04-03T01:37:27;0.70;99.90
26107;DHT22;13866;50.748;12.630;2023-04-03T01:39:52;0.70;99.90
26107;DHT22;13866;50.748;12.630;2023-04-03T01:42:18;0.70;99.90
26107;DHT22;13866;50.748;12.630;2023-04-03T01:44:43;0.50;99.90
26107;DHT22;13866;50.748;12.630;2023-04-03T01:47:10;0.50;99.90
26107;DHT22;13866;50.748;12.630;2023-04-03T01:49:35;0.50;99.90
26107;DHT22;13866;50.748;12.630;2023-04-03T01:52:01;0.50;99.90
26107;DHT22;13866;50.748;12.630;2023-04-03T01:54:26;0.50;99.90
26107;DHT22;13866;50.748;12.630;2023-04-03T01:56:51;0.40;99.90
26107;DHT22;13866;50.748;12.630;2023-04-03T01:59:17;0.40;99.90
26107;DHT22;13866;50.748;12.630;2023-04-03T02:01:44;0.40;99.90
26107;DHT22;13866;50.748;12.630;2023-04-03T02:04:11;0.30;99.90
26107;DHT22;13866;50.748;12.630;2023-04-03T02:06:36;0.30;99.90
26107;DHT22;13866;50.748;12.630;2023-04-03T02:09:02;0.20;99.90
26107;DHT22;13866;50.748;12.630;2023-04-03T02:11:28;0.20;99.90
26107;DHT22;13866;50.748;12.630;2023-04-03T02:13:53;0.20;99.90
26107;DHT22;13866;50.748;12.630;2023-04-03T02:16:19;0.20;99.90
26107;DHT22;13866;50.748;12.630;2023-04-03T02:18:44;0.10;99.90
26107;DHT22;13866;50.748;12.630;2023-04-03T02:21:10;0.10;99.90
26107;DHT22;13866;50.748;12.630;2023-04-03T02:23:35;0.10;99.90
26107;DHT22;13866;50.748;12.630;2023-04-03T02:26:04;0.10;99.90
26107;DHT22;13866;50.748;12.630;2023-04-03T02:28:30;0.10;99.90
26107;DHT22;13866;50.748;12.630;2023-04-03T02:30:56;0.10;99.90
26107;DHT22;13866;50.748;12.630;2023-04-03T02:33:21;0.10;99.90
26107;DHT22;13866;50.748;12.630;2023-04-03T02:35:46;0.00;99.90
26107;DHT22;13866;50.748;12.630;2023-04-03T02:38:18;0.00;99.90
26107;DHT22;13866;50.748;12.630;2023-04-03T02:40:43;0.00;99.90
26107;DHT22;13866;50.748;12.630;2023-04-03T02:43:09;0.00;99.90
26107;DHT22;13866;50.748;12.630;2023-04-03T02:45:35;0.00;99.90
26107;DHT22;13866;50.748;12.630;2023-04-03T02:48:00;0.00;99.90
26107;DHT22;13866;50.748;12.630;2023-04-03T02:50:26;-0.10;99.90
26107;DHT22;13866;50.748;12.630;2023-04-03T02:52:51;-0.10;99.90
26107;DHT22;13866;50.748;12.630;2023-04-03T02:55:17;-0.10;99.90
26107;DHT22;13866;50.748;12.630;2023-04-03T02:57:42;-0.20;99.90
26107;DHT22;13866;50.748;12.630;2023-04-03T03:00:08;-0.20;99.90
26107;DHT22;13866;50.748;12.630;2023-04-03T03:02:35;-0.20;99.90
26107;DHT22;13866;50.748;12.630;2023-04-03T03:05:00;-0.30;99.90
26107;DHT22;13866;50.748;12.630;2023-04-03T03:07:26;-0.30;99.90
26107;DHT22;13866;50.748;12.630;2023-04-03T03:09:52;-0.30;99.90
26107;DHT22;13866;50.748;12.630;2023-04-03T03:12:17;-0.30;99.90
26107;DHT22;13866;50.748;12.630;2023-04-03T03:14:47;-0.30;99.90
26107;DHT22;13866;50.748;12.630;2023-04-03T03:17:13;-0.30;99.90
26107;DHT22;13866;50.748;12.630;2023-04-03T03:19:38;-0.30;99.90
26107;DHT22;13866;50.748;12.630;2023-04-03T03:22:04;-0.30;99.90
26107;DHT22;13866;50.748;12.630;2023-04-03T03:24:29;-0.40;99.90
26107;DHT22;13866;50.748;12.630;2023-04-03T03:26:55;-0.30;99.90
26107;DHT22;13866;50.748;12.630;2023-04-03T03:29:21;-0.30;99.90
26107;DHT22;13866;50.748;12.630;2023-04-03T03:31:46;-0.40;99.90
26107;DHT22;13866;50.748;12.630;2023-04-03T03:34:12;-0.40;99.90
26107;DHT22;13866;50.748;12.630;2023-04-03T03:36:38;-0.40;99.90
26107;DHT22;13866;50.748;12.630;2023-04-03T03:39:03;-0.40;99.90
26107;DHT22;13866;50.748;12.630;2023-04-03T03:41:29;-0.40;99.90
26107;DHT22;13866;50.748;12.630;2023-04-03T03:43:54;-0.40;99.90
26107;DHT22;13866;50.748;12.630;2023-04-03T03:46:20;-0.40;99.90
26107;DHT22;13866;50.748;12.630;2023-04-03T03:48:46;-0.50;99.90
26107;DHT22;13866;50.748;12.630;2023-04-03T03:51:11;-0.50;99.90
26107;DHT22;13866;50.748;12.630;2023-04-03T03:53:36;-0.50;99.90
26107;DHT22;13866;50.748;12.630;2023-04-03T03:56:02;-0.50;99.90
26107;DHT22;13866;50.748;12.630;2023-04-03T03:58:28;-0.50;99.90
26107;DHT22;13866;50.748;12.630;2023-04-03T04:00:53;-0.50;99.90
26107;DHT22;13866;50.748;12.630;2023-04-03T04:03:19;-0.50;99.90
26107;DHT22;13866;50.748;12.630;2023-04-03T04:05:44;-0.50;99.90
26107;DHT22;13866;50.748;12.630;2023-04-03T04:08:10;-0.60;99.90
26107;DHT22;13866;50.748;12.630;2023-04-03T04:10:37;-0.60;99.90
26107;DHT22;13866;50.748;12.630;2023-04-03T04:13:03;-0.70;99.90
26107;DHT22;13866;50.748;12.630;2023-04-03T04:15:28;-0.70;99.90
26107;DHT22;13866;50.748;12.630;2023-04-03T04:17:54;-0.70;99.90
26107;DHT22;13866;50.748;12.630;2023-04-03T04:20:19;-0.70;99.90
26107;DHT22;13866;50.748;12.630;2023-04-03T04:22:45;-0.80;99.90
26107;DHT22;13866;50.748;12.630;2023-04-03T04:25:11;-0.90;99.90
26107;DHT22;13866;50.748;12.630;2023-04-03T04:27:36;-0.90;99.90
26107;DHT22;13866;50.748;12.630;2023-04-03T04:30:03;-1.00;99.90
26107;DHT22;13866;50.748;12.630;2023-04-03T04:32:28;-1.10;99.90
26107;DHT22;13866;50.748;12.630;2023-04-03T04:34:54;-1.00;99.90
26107;DHT22;13866;50.748;12.630;2023-04-03T04:37:20;-1.00;99.90
26107;DHT22;13866;50.748;12.630;2023-04-03T04:39:45;-1.00;99.90
26107;DHT22;13866;50.748;12.630;2023-04-03T04:42:10;-1.10;99.90
26107;DHT22;13866;50.748;12.630;2023-04-03T04:44:38;-1.10;99.90
26107;DHT22;13866;50.748;12.630;2023-04-03T04:47:04;-1.00;99.90
26107;DHT22;13866;50.748;12.630;2023-04-03T04:49:29;-1.00;99.90
26107;DHT22;13866;50.748;12.630;2023-04-03T04:51:55;-1.00;99.90
26107;DHT22;13866;50.748;12.630;2023-04-03T04:54:20;-1.00;99.90
26107;DHT22;13866;50.748;12.630;2023-04-03T04:56:46;-1.10;99.90
26107;DHT22;13866;50.748;12.630;2023-04-03T04:59:12;-1.10;99.90
26107;DHT22;13866;50.748;12.630;2023-04-03T05:01:37;-1.20;99.90
26107;DHT22;13866;50.748;12.630;2023-04-03T05:04:03;-1.20;99.90
26107;DHT22;13866;50.748;12.630;2023-04-03T05:06:28;-1.10;99.90
26107;DHT22;13866;50.748;12.630;2023-04-03T05:08:55;-1.20;99.90
26107;DHT22;13866;50.748;12.630;2023-04-03T05:11:21;-1.20;99.90
26107;DHT22;13866;50.748;12.630;2023-04-03T05:13:46;-1.20;99.90
26107;DHT22;13866;50.748;12.630;2023-04-03T05:16:12;-1.20;99.90
26107;DHT22;13866;50.748;12.630;2023-04-03T05:18:37;-1.20;99.90
26107;DHT22;13866;50.748;12.630;2023-04-03T05:21:03;-1.20;99.90
26107;DHT22;13866;50.748;12.630;2023-04-03T05:23:28;-1.10;99.90
26107;DHT22;13866;50.748;12.630;2023-04-03T05:25:54;-1.20;99.90
26107;DHT22;13866;50.748;12.630;2023-04-03T05:28:19;-1.20;99.90
26107;DHT22;13866;50.748;12.630;2023-04-03T05:30:45;-1.30;99.90
26107;DHT22;13866;50.748;12.630;2023-04-03T05:33:10;-1.40;99.90
26107;DHT22;13866;50.748;12.630;2023-04-03T05:35:37;-1.50;99.90
26107;DHT22;13866;50.748;12.630;2023-04-03T05:38:05;-1.50;99.90
26107;DHT22;13866;50.748;12.630;2023-04-03T05:40:31;-1.50;99.90
26107;DHT22;13866;50.748;12.630;2023-04-03T05:42:56;-1.40;99.90
26107;DHT22;13866;50.748;12.630;2023-04-03T05:45:22;-1.40;99.90
26107;DHT22;13866;50.748;12.630;2023-04-03T05:47:48;-1.40;99.90
26107;DHT22;13866;50.748;12.630;2023-04-03T05:50:14;-1.40;99.90
26107;DHT22;13866;50.748;12.630;2023-04-03T05:52:42;-1.40;99.90
26107;DHT22;13866;50.748;12.630;2023-04-03T05:55:09;-1.60;99.90
26107;DHT22;13866;50.748;12.630;2023-04-03T05:57:34;-1.50;99.90
26107;DHT22;13866;50.748;12.630;2023-04-03T06:00:00;-1.60;99.90
26107;DHT22;13866;50.748;12.630;2023-04-03T06:02:25;-1.50;99.90
26107;DHT22;13866;50.748;12.630;2023-04-03T06:04:52;-1.40;99.90
26107;DHT22;13866;50.748;12.630;2023-04-03T06:07:20;-1.50;99.90
26107;DHT22;13866;50.748;12.630;2023-04-03T06:09:48;-1.40;99.90
26107;DHT22;13866;50.748;12.630;2023-04-03T06:12:13;-1.20;99.90
26107;DHT22;13866;50.748;12.630;2023-04-03T06:14:39;-1.30;99.90
26107;DHT22;13866;50.748;12.630;2023-04-03T06:17:05;-1.40;99.90
26107;DHT22;13866;50.748;12.630;2023-04-03T06:19:31;-1.20;99.90
26107;DHT22;13866;50.748;12.630;2023-04-03T06:21:56;-1.20;99.90
26107;DHT22;13866;50.748;12.630;2023-04-03T06:24:22;-1.20;99.90
26107;DHT22;13866;50.748;12.630;2023-04-03T06:26:50;-1.30;99.90
26107;DHT22;13866;50.748;12.630;2023-04-03T06:29:16;-1.30;99.90
26107;DHT22;13866;50.748;12.630;2023-04-03T06:31:42;-1.30;99.90
26107;DHT22;13866;50.748;12.630;2023-04-03T06:34:07;-1.40;99.90
26107;DHT22;13866;50.748;12.630;2023-04-03T06:36:33;-1.30;99.90
26107;DHT22;13866;50.748;12.630;2023-04-03T06:39:00;-1.20;99.90
26107;DHT22;13866;50.748;12.630;2023-04-03T06:41:26;-1.30;99.90
26107;DHT22;13866;50.748;12.630;2023-04-03T06:43:52;-1.60;99.90
26107;DHT22;13866;50.748;12.630;2023-04-03T06:46:20;-1.50;99.90
26107;DHT22;13866;50.748;12.630;2023-04-03T06:48:46;-1.30;99.90
26107;DHT22;13866;50.748;12.630;2023-04-03T06:51:26;-1.30;99.90
26107;DHT22;13866;50.748;12.630;2023-04-03T06:53:53;-1.20;99.90
26107;DHT22;13866;50.748;12.630;2023-04-03T06:56:19;-1.20;99.90
26107;DHT22;13866;50.748;12.630;2023-04-03T06:58:45;-1.30;99.90
26107;DHT22;13866;50.748;12.630;2023-04-03T07:01:13;-1.10;99.90
26107;DHT22;13866;50.748;12.630;2023-04-03T07:03:38;-1.10;99.90
26107;DHT22;13866;50.748;12.630;2023-04-03T07:06:04;-1.30;99.90
26107;DHT22;13866;50.748;12.630;2023-04-03T07:08:31;-1.40;99.90
26107;DHT22;13866;50.748;12.630;2023-04-03T07:10:56;-1.30;99.90
26107;DHT22;13866;50.748;12.630;2023-04-03T07:13:22;-1.30;99.90
26107;DHT22;13866;50.748;12.630;2023-04-03T07:15:47;-1.20;99.90
26107;DHT22;13866;50.748;12.630;2023-04-03T07:18:13;-1.10;99.90
26107;DHT22;13866;50.748;12.630;2023-04-03T07:20:39;-1.30;99.90
26107;DHT22;13866;50.748;12.630;2023-04-03T07:23:05;-1.10;99.90
26107;DHT22;13866;50.748;12.630;2023-04-03T07:25:31;-1.10;99.90
26107;DHT22;13866;50.748;12.630;2023-04-03T07:27:57;-1.20;99.90
26107;DHT22;13866;50.748;12.630;2023-04-03T07:30:23;-1.20;99.90
26107;DHT22;13866;50.748;12.630;2023-04-03T07:32:48;-1.10;99.90
26107;DHT22;13866;50.748;12.630;2023-04-03T07:35:14;-0.90;99.90
26107;DHT22;13866;50.748;12.630;2023-04-03T07:37:40;-0.80;99.90
26107;DHT22;13866;50.748;12.630;2023-04-03T07:40:06;-0.80;99.90
26107;DHT22;13866;50.748;12.630;2023-04-03T07:42:32;-0.70;99.90
26107;DHT22;13866;50.748;12.630;2023-04-03T07:44:57;-0.80;99.90
26107;DHT22;13866;50.748;12.630;2023-04-03T07:47:23;-0.90;99.90
26107;DHT22;13866;50.748;12.630;2023-04-03T07:49:48;-0.70;99.90
26107;DHT22;13866;50.748;12.630;2023-04-03T07:52:14;-0.80;99.90
26107;DHT22;13866;50.748;12.630;2023-04-03T07:54:41;-0.60;99.90
26107;DHT22;13866;50.748;12.630;2023-04-03T07:57:07;-0.50;99.90
26107;DHT22;13866;50.748;12.630;2023-04-03T07:59:32;-0.40;99.90
26107;DHT22;13866;50.748;12.630;2023-04-03T08:01:58;-0.10;99.90
26107;DHT22;13866;50.748;12.630;2023-04-03T08:04:23;0.10;99.90
26107;DHT22;13866;50.748;12.630;2023-04-03T08:06:49;-0.10;99.90
26107;DHT22;13866;50.748;12.630;2023-04-03T08:09:15;0.00;99.90
26107;DHT22;13866;50.748;12.630;2023-04-03T08:11:41;-0.20;99.90
26107;DHT22;13866;50.748;12.630;2023-04-03T08:14:06;-0.10;99.90
26107;DHT22;13866;50.748;12.630;2023-04-03T08:16:32;0.00;99.90
26107;DHT22;13866;50.748;12.630;2023-04-03T08:18:57;0.10;99.90
26107;DHT22;13866;50.748;12.630;2023-04-03T08:21:23;0.30;99.90
26107;DHT22;13866;50.748;12.630;2023-04-03T08:23:49;0.30;99.90
26107;DHT22;13866;50.748;12.630;2023-04-03T08:26:20;1.00;99.90
26107;DHT22;13866;50.748;12.630;2023-04-03T08:28:47;0.40;99.90
26107;DHT22;13866;50.748;12.630;2023-04-03T08:31:15;0.40;99.90
26107;DHT22;13866;50.748;12.630;2023-04-03T08:33:41;1.20;99.90
26107;DHT22;13866;50.748;12.630;2023-04-03T08:36:14;1.80;99.90
26107;DHT22;13866;50.748;12.630;2023-04-03T08:38:41;2.10;99.90
26107;DHT22;13866;50.748;12.630;2023-04-03T08:41:20;2.10;99.90
26107;DHT22;13866;50.748;12.630;2023-04-03T08:46:29;1.50;99.90
26107;DHT22;13866;50.748;12.630;2023-04-03T08:49:00;1.60;99.90
26107;DHT22;13866;50.748;12.630;2023-04-03T08:51:26;1.00;99.90
26107;DHT22;13866;50.748;12.630;2023-04-03T08:53:57;1.10;99.90
26107;DHT22;13866;50.748;12.630;2023-04-03T08:56:26;1.00;99.90
26107;DHT22;13866;50.748;12.630;2023-04-03T08:59:06;1.30;99.90
26107;DHT22;13866;50.748;12.630;2023-04-03T09:01:40;1.30;99.90
26107;DHT22;13866;50.748;12.630;2023-04-03T09:04:14;1.30;99.90
26107;DHT22;13866;50.748;12.630;2023-04-03T09:06:43;1.20;99.90
26107;DHT22;13866;50.748;12.630;2023-04-03T09:09:23;1.30;99.90
26107;DHT22;13866;50.748;12.630;2023-04-03T09:12:25;1.20;99.90
26107;DHT22;13866;50.748;12.630;2023-04-03T09:15:15;1.20;99.90
26107;DHT22;13866;50.748;12.630;2023-04-03T09:18:09;1.20;99.90
26107;DHT22;13866;50.748;12.630;2023-04-03T09:21:07;0.80;99.90
26107;DHT22;13866;50.748;12.630;2023-04-03T09:23:42;1.10;99.90
26107;DHT22;13866;50.748;12.630;2023-04-03T09:26:45;1.30;99.90
26107;DHT22;13866;50.748;12.630;2023-04-03T09:29:22;1.40;99.90
26107;DHT22;13866;50.748;12.630;2023-04-03T09:31:50;1.10;99.90
26107;DHT22;13866;50.748;12.630;2023-04-03T09:36:51;1.20;99.90
26107;DHT22;13866;50.748;12.630;2023-04-03T09:39:23;1.30;99.90
26107;DHT22;13866;50.748;12.630;2023-04-03T09:42:14;1.60;99.90
26107;DHT22;13866;50.748;12.630;2023-04-03T09:44:44;1.90;99.90
26107;DHT22;13866;50.748;12.630;2023-04-03T09:47:25;1.70;99.90
26107;DHT22;13866;50.748;12.630;2023-04-03T09:49:54;1.90;99.90
26107;DHT22;13866;50.748;12.630;2023-04-03T09:52:34;1.90;99.90
26107;DHT22;13866;50.748;12.630;2023-04-03T09:55:16;2.10;99.90
26107;DHT22;13866;50.748;12.630;2023-04-03T09:57:43;2.40;99.90
26107;DHT22;13866;50.748;12.630;2023-04-03T10:00:21;2.20;99.90
26107;DHT22;13866;50.748;12.630;2023-04-03T10:02:51;2.30;99.90
26107;DHT22;13866;50.748;12.630;2023-04-03T10:05:37;2.20;99.90
26107;DHT22;13866;50.748;12.630;2023-04-03T10:08:15;2.40;99.90
26107;DHT22;13866;50.748;12.630;2023-04-03T10:10:46;2.70;99.90
26107;DHT22;13866;50.748;12.630;2023-04-03T10:13:15;3.00;99.90
26107;DHT22;13866;50.748;12.630;2023-04-03T10:16:06;2.40;99.90
26107;DHT22;13866;50.748;12.630;2023-04-03T10:18:49;3.10;99.90
26107;DHT22;13866;50.748;12.630;2023-04-03T10:21:53;3.40;99.90
26107;DHT22;13866;50.748;12.630;2023-04-03T10:27:07;3.40;99.90
26107;DHT22;13866;50.748;12.630;2023-04-03T10:29:47;2.90;99.90
26107;DHT22;13866;50.748;12.630;2023-04-03T10:32:28;3.50;99.90
26107;DHT22;13866;50.748;12.630;2023-04-03T10:35:25;3.40;99.90
26107;DHT22;13866;50.748;12.630;2023-04-03T10:38:01;3.50;99.90
26107;DHT22;13866;50.748;12.630;2023-04-03T10:40:30;4.00;99.90
26107;DHT22;13866;50.748;12.630;2023-04-03T10:45:51;5.50;99.90
26107;DHT22;13866;50.748;12.630;2023-04-03T10:48:40;5.00;99.90
26107;DHT22;13866;50.748;12.630;2023-04-03T10:51:33;4.70;99.90
26107;DHT22;13866;50.748;12.630;2023-04-03T10:56:42;5.50;99.90
26107;DHT22;13866;50.748;12.630;2023-04-03T11:01:52;4.40;99.90
26107;DHT22;13866;50.748;12.630;2023-04-03T11:04:21;4.40;99.90
26107;DHT22;13866;50.748;12.630;2023-04-03T11:07:01;5.30;99.90
26107;DHT22;13866;50.748;12.630;2023-04-03T11:09:30;4.90;99.90
26107;DHT22;13866;50.748;12.630;2023-04-03T11:12:44;4.90;99.90
26107;DHT22;13866;50.748;12.630;2023-04-03T11:15:02;5.50;99.90
26107;DHT22;13866;50.748;12.630;2023-04-03T11:17:41;5.60;99.90
26107;DHT22;13866;50.748;12.630;2023-04-03T11:20:42;5.70;99.90
26107;DHT22;13866;50.748;12.630;2023-04-03T11:23:24;5.20;99.90
26107;DHT22;13866;50.748;12.630;2023-04-03T11:25:53;4.50;99.90
26107;DHT22;13866;50.748;12.630;2023-04-03T11:28:20;4.40;99.90
26107;DHT22;13866;50.748;12.630;2023-04-03T11:31:12;4.40;99.90
26107;DHT22;13866;50.748;12.630;2023-04-03T11:36:53;5.20;99.90
26107;DHT22;13866;50.748;12.630;2023-04-03T11:39:32;5.40;99.90
26107;DHT22;13866;50.748;12.630;2023-04-03T11:42:38;5.10;99.90
26107;DHT22;13866;50.748;12.630;2023-04-03T11:45:25;5.30;99.90
26107;DHT22;13866;50.748;12.630;2023-04-03T11:47:57;4.90;99.90
26107;DHT22;13866;50.748;12.630;2023-04-03T12:26:51;4.70;99.90
26107;DHT22;13866;50.748;12.630;2023-04-03T12:32:06;3.90;99.90
26107;DHT22;13866;50.748;12.630;2023-04-03T12:35:17;3.50;99.90
26107;DHT22;13866;50.748;12.630;2023-04-03T12:38:06;3.60;99.90
26107;DHT22;13866;50.748;12.630;2023-04-03T12:40:45;3.10;99.90
26107;DHT22;13866;50.748;12.630;2023-04-03T12:46:11;3.20;99.90
26107;DHT22;13866;50.748;12.630;2023-04-03T12:48:47;4.00;99.90
26107;DHT22;13866;50.748;12.630;2023-04-03T12:51:19;4.80;99.90
26107;DHT22;13866;50.748;12.630;2023-04-03T12:53:47;4.90;99.90
26107;DHT22;13866;50.748;12.630;2023-04-03T12:56:28;4.20;99.90
26107;DHT22;13866;50.748;12.630;2023-04-03T12:58:57;4.00;99.90
26107;DHT22;13866;50.748;12.630;2023-04-03T13:01:37;3.80;99.90
26107;DHT22;13866;50.748;12.630;2023-04-03T13:04:03;3.80;99.90
26107;DHT22;13866;50.748;12.630;2023-04-03T13:06:39;3.70;99.90
26107;DHT22;13866;50.748;12.630;2023-04-03T13:09:14;3.60;99.90
26107;DHT22;13866;50.748;12.630;2023-04-03T13:11:44;3.60;99.90
26107;DHT22;13866;50.748;12.630;2023-04-03T13:14:36;4.40;99.90
26107;DHT22;13866;50.748;12.630;2023-04-03T13:17:16;5.10;99.90
26107;DHT22;13866;50.748;12.630;2023-04-03T13:19:42;5.30;99.90
26107;DHT22;13866;50.748;12.630;2023-04-03T13:22:33;5.60;99.90
26107;DHT22;13866;50.748;12.630;2023-04-03T13:25:07;4.90;99.90
26107;DHT22;13866;50.748;12.630;2023-04-03T13:27:33;4.20;99.90
26107;DHT22;13866;50.748;12.630;2023-04-03T13:30:01;3.70;99.90
26107;DHT22;13866;50.748;12.630;2023-04-03T13:32:31;3.60;99.90
26107;DHT22;13866;50.748;12.630;2023-04-03T13:34:57;3.70;99.90
26107;DHT22;13866;50.748;12.630;2023-04-03T13:37:31;3.80;99.90
26107;DHT22;13866;50.748;12.630;2023-04-03T13:42:36;4.70;99.90
26107;DHT22;13866;50.748;12.630;2023-04-03T13:45:22;4.90;99.90
26107;DHT22;13866;50.748;12.630;2023-04-03T13:47:50;5.00;99.90
26107;DHT22;13866;50.748;12.630;2023-04-03T13:50:20;4.60;99.90
26107;DHT22;13866;50.748;12.630;2023-04-03T13:52:52;4.00;99.90
26107;DHT22;13866;50.748;12.630;2023-04-03T13:55:27;3.90;99.90
26107;DHT22;13866;50.748;12.630;2023-04-03T13:58:00;3.80;99.90
26107;DHT22;13866;50.748;12.630;2023-04-03T14:00:40;3.30;99.90
26107;DHT22;13866;50.748;12.630;2023-04-03T14:03:22;3.20;99.90
26107;DHT22;13866;50.748;12.630;2023-04-03T14:05:48;3.30;99.90
26107;DHT22;13866;50.748;12.630;2023-04-03T14:08:14;3.80;99.90
26107;DHT22;13866;50.748;12.630;2023-04-03T14:10:39;3.90;99.90
26107;DHT22;13866;50.748;12.630;2023-04-03T14:13:05;3.90;99.90
26107;DHT22;13866;50.748;12.630;2023-04-03T14:15:32;3.60;99.90
26107;DHT22;13866;50.748;12.630;2023-04-03T14:17:58;3.80;99.90
26107;DHT22;13866;50.748;12.630;2023-04-03T14:20:26;3.70;99.90
26107;DHT22;13866;50.748;12.630;2023-04-03T14:22:52;3.20;99.90
26107;DHT22;13866;50.748;12.630;2023-04-03T14:25:20;3.40;99.90
26107;DHT22;13866;50.748;12.630;2023-04-03T14:27:49;3.50;99.90
26107;DHT22;13866;50.748;12.630;2023-04-03T14:30:19;3.50;99.90
26107;DHT22;13866;50.748;12.630;2023-04-03T14:32:46;3.30;99.90
26107;DHT22;13866;50.748;12.630;2023-04-03T14:35:12;3.20;99.90
26107;DHT22;13866;50.748;12.630;2023-04-03T14:37:38;3.40;99.90
26107;DHT22;13866;50.748;12.630;2023-04-03T14:40:04;3.30;99.90
26107;DHT22;13866;50.748;12.630;2023-04-03T14:42:33;3.30;99.90
26107;DHT22;13866;50.748;12.630;2023-04-03T14:45:01;3.50;99.90
26107;DHT22;13866;50.748;12.630;2023-04-03T14:47:29;3.30;99.90
26107;DHT22;13866;50.748;12.630;2023-04-03T14:49:55;3.20;99.90
26107;DHT22;13866;50.748;12.630;2023-04-03T14:52:27;3.10;99.90
26107;DHT22;13866;50.748;12.630;2023-04-03T14:54:54;3.20;99.90
26107;DHT22;13866;50.748;12.630;2023-04-03T14:57:21;3.00;99.90
26107;DHT22;13866;50.748;12.630;2023-04-03T14:59:47;3.30;99.90
26107;DHT22;13866;50.748;12.630;2023-04-03T15:04:55;3.20;99.90
26107;DHT22;13866;50.748;12.630;2023-04-03T15:07:21;3.30;99.90
26107;DHT22;13866;50.748;12.630;2023-04-03T15:09:47;3.20;99.90
26107;DHT22;13866;50.748;12.630;2023-04-03T15:12:13;3.20;99.90
26107;DHT22;13866;50.748;12.630;2023-04-03T15:14:39;3.20;99.90
26107;DHT22;13866;50.748;12.630;2023-04-03T15:17:05;3.20;99.90
26107;DHT22;13866;50.748;12.630;2023-04-03T15:19:37;3.10;99.90
26107;DHT22;13866;50.748;12.630;2023-04-03T15:22:03;2.90;99.90
26107;DHT22;13866;50.748;12.630;2023-04-03T15:24:28;2.80;99.90
26107;DHT22;13866;50.748;12.630;2023-04-03T15:26:54;2.90;99.90
26107;DHT22;13866;50.748;12.630;2023-04-03T15:29:20;2.80;99.90
26107;DHT22;13866;50.748;12.630;2023-04-03T15:31:45;3.00;99.90
26107;DHT22;13866;50.748;12.630;2023-04-03T15:34:10;3.00;99.90
26107;DHT22;13866;50.748;12.630;2023-04-03T15:36:36;3.00;99.90
26107;DHT22;13866;50.748;12.630;2023-04-03T15:39:01;3.00;99.90
26107;DHT22;13866;50.748;12.630;2023-04-03T15:41:27;2.60;99.90
26107;DHT22;13866;50.748;12.630;2023-04-03T15:43:52;2.60;99.90
26107;DHT22;13866;50.748;12.630;2023-04-03T15:46:18;2.70;99.90
26107;DHT22;13866;50.748;12.630;2023-04-03T15:48:43;2.70;99.90
26107;DHT22;13866;50.748;12.630;2023-04-03T15:51:10;2.70;99.90
26107;DHT22;13866;50.748;12.630;2023-04-03T15:53:35;2.70;99.90
26107;DHT22;13866;50.748;12.630;2023-04-03T15:56:01;2.70;99.90
26107;DHT22;13866;50.748;12.630;2023-04-03T15:58:26;2.70;99.90
26107;DHT22;13866;50.748;12.630;2023-04-03T16:00:52;2.70;99.90
26107;DHT22;13866;50.748;12.630;2023-04-03T16:03:20;2.70;99.90
26107;DHT22;13866;50.748;12.630;2023-04-03T16:05:46;2.70;99.90
26107;DHT22;13866;50.748;12.630;2023-04-03T16:08:11;2.60;99.90
26107;DHT22;13866;50.748;12.630;2023-04-03T16:10:38;2.40;99.90
26107;DHT22;13866;50.748;12.630;2023-04-03T16:13:05;2.20;99.90
26107;DHT22;13866;50.748;12.630;2023-04-03T16:15:31;2.20;99.90
26107;DHT22;13866;50.748;12.630;2023-04-03T16:17:58;2.30;99.90
26107;DHT22;13866;50.748;12.630;2023-04-03T16:20:24;2.20;99.90
26107;DHT22;13866;50.748;12.630;2023-04-03T16:22:50;2.30;99.90
26107;DHT22;13866;50.748;12.630;2023-04-03T16:25:16;2.30;99.90
26107;DHT22;13866;50.748;12.630;2023-04-03T16:27:42;2.20;99.90
26107;DHT22;13866;50.748;12.630;2023-04-03T16:30:09;2.20;99.90
26107;DHT22;13866;50.748;12.630;2023-04-03T16:32:36;2.20;99.90
26107;DHT22;13866;50.748;12.630;2023-04-03T16:35:02;2.10;99.90
26107;DHT22;13866;50.748;12.630;2023-04-03T16:37:27;2.00;99.90
26107;DHT22;13866;50.748;12.630;2023-04-03T16:39:53;2.00;99.90
26107;DHT22;13866;50.748;12.630;2023-04-03T16:42:18;2.00;99.90
26107;DHT22;13866;50.748;12.630;2023-04-03T16:44:44;2.00;99.90
26107;DHT22;13866;50.748;12.630;2023-04-03T16:47:10;1.90;99.90
26107;DHT22;13866;50.748;12.630;2023-04-03T16:49:36;1.90;99.90